Time;durP1;ratioP1;P1;durP2;ratioP2;P2;SDS_P1;SDS_P2;PMS_P1;PMS_P2;Temp;Humidity;BMP_temperature;BMP_pressure;BME280_temperature;BME280_humidity;BME280_pressure;Samples;Min_cycle;Max_cycle;Signal;HPM_P1;HPM_P2
2023/05/14 00:01:40;;;;;;;6.23;5.63;;;11.80;99.90;;;;;;5044734;28;20239;-41
2023/05/14 00:04:08;;;;;;;6.67;5.67;;;11.80;99.90;;;;;;5046431;28;20251;-41
2023/05/14 00:06:34;;;;;;;7.23;6.40;;;11.80;99.90;;;;;;5052684;28;20273;-41
2023/05/14 00:09:00;;;;;;;6.37;5.77;;;11.80;99.90;;;;;;5043295;28;20282;-40
2023/05/14 00:11:26;;;;;;;7.10;6.40;;;11.70;99.90;;;;;;5035812;28;20203;-42
2023/05/14 00:13:52;;;;;;;8.27;6.73;;;11.70;99.90;;;;;;5055196;28;20204;-41
2023/05/14 00:16:18;;;;;;;7.80;7.00;;;11.70;99.90;;;;;;5042823;28;20192;-41
2023/05/14 00:18:44;;;;;;;8.37;6.37;;;11.70;99.90;;;;;;5052543;28;20187;-41
2023/05/14 00:21:10;;;;;;;7.17;6.47;;;11.80;99.90;;;;;;5052263;28;20670;-39
2023/05/14 00:23:35;;;;;;;7.07;6.37;;;11.70;99.90;;;;;;5060373;28;20342;-41
2023/05/14 00:26:01;;;;;;;8.20;6.77;;;11.80;99.90;;;;;;5052800;28;20190;-41
2023/05/14 00:28:27;;;;;;;7.47;6.57;;;11.70;99.90;;;;;;5052572;28;20648;-41
2023/05/14 00:30:53;;;;;;;6.20;5.60;;;11.70;99.90;;;;;;5034227;28;20359;-41
2023/05/14 00:33:19;;;;;;;6.93;6.23;;;11.80;99.90;;;;;;5027978;28;20392;-40
2023/05/14 00:35:44;;;;;;;7.13;6.53;;;11.80;99.90;;;;;;5070765;28;20223;-41
2023/05/14 00:38:15;;;;;;;7.93;6.30;;;11.80;99.90;;;;;;5044978;28;20196;-40
2023/05/14 00:40:44;;;;;;;6.37;5.73;;;11.80;99.90;;;;;;5033029;28;20232;-41
2023/05/14 00:43:10;;;;;;;6.27;5.67;;;11.80;99.90;;;;;;5059981;28;20214;-41
2023/05/14 00:45:37;;;;;;;7.40;6.27;;;11.80;99.90;;;;;;5042100;28;20184;-41
2023/05/14 00:48:04;;;;;;;6.87;6.20;;;11.70;99.90;;;;;;5057693;28;20216;-40
2023/05/14 00:50:30;;;;;;;7.63;6.37;;;11.70;99.90;;;;;;5025737;28;20285;-40
2023/05/14 00:52:56;;;;;;;6.80;6.10;;;11.70;99.90;;;;;;5052122;28;20378;-40
2023/05/14 00:55:22;;;;;;;6.63;6.03;;;11.60;99.90;;;;;;5033699;28;20186;-40
2023/05/14 00:57:49;;;;;;;7.20;6.30;;;11.60;99.90;;;;;;5047984;28;20216;-41
2023/05/14 01:00:16;;;;;;;7.10;6.03;;;11.60;99.90;;;;;;5032674;28;20249;-41
2023/05/14 01:02:42;;;;;;;10.23;6.47;;;11.60;99.90;;;;;;5038186;28;20196;-42
2023/05/14 01:05:08;;;;;;;7.40;6.70;;;11.60;99.90;;;;;;5054387;28;20185;-39
2023/05/14 01:07:58;;;;;;;7.30;6.60;;;11.50;99.90;;;;;;5043148;28;20183;-39
2023/05/14 01:10:35;;;;;;;7.47;6.67;;;11.50;99.90;;;;;;5042030;28;20192;-41
2023/05/14 01:13:06;;;;;;;7.60;6.37;;;11.50;99.90;;;;;;5043584;28;20210;-41
2023/05/14 01:15:35;;;;;;;7.33;6.57;;;11.50;99.90;;;;;;5052606;28;20187;-41
2023/05/14 01:18:07;;;;;;;7.20;6.50;;;11.50;99.90;;;;;;5033643;28;20185;-41
2023/05/14 01:20:33;;;;;;;7.90;7.13;;;11.50;99.90;;;;;;5032621;28;20212;-41
2023/05/14 01:22:59;;;;;;;10.17;7.40;;;11.50;99.90;;;;;;5030225;28;20199;-41
2023/05/14 01:25:25;;;;;;;7.40;6.70;;;11.50;99.90;;;;;;5036800;28;20678;-41
2023/05/14 01:28:10;;;;;;;7.60;6.60;;;11.50;99.90;;;;;;5041513;28;20184;-41
2023/05/14 01:30:42;;;;;;;8.03;6.90;;;11.50;99.90;;;;;;5036492;28;20239;-39
2023/05/14 01:33:15;;;;;;;7.67;6.80;;;11.50;99.90;;;;;;5038637;28;20350;-42
2023/05/14 01:35:41;;;;;;;8.40;7.53;;;11.50;99.90;;;;;;5048807;28;20190;-39
2023/05/14 01:38:10;;;;;;;7.93;7.13;;;11.60;99.90;;;;;;5038426;28;20188;-41
2023/05/14 01:40:38;;;;;;;9.10;7.53;;;11.50;99.90;;;;;;5041320;28;20212;-39
2023/05/14 01:43:04;;;;;;;7.80;6.97;;;11.60;99.90;;;;;;5030061;28;20313;-41
2023/05/14 01:45:30;;;;;;;7.73;6.93;;;11.50;99.90;;;;;;5034294;28;20176;-41
2023/05/14 01:47:58;;;;;;;9.97;7.83;;;11.50;99.90;;;;;;5024032;28;20175;-40
2023/05/14 01:50:25;;;;;;;7.97;7.10;;;11.50;99.90;;;;;;5037300;28;20183;-41
2023/05/14 01:52:52;;;;;;;8.20;7.40;;;11.50;99.90;;;;;;5037336;28;20248;-40
2023/05/14 01:55:18;;;;;;;7.63;6.93;;;11.50;99.90;;;;;;5034156;28;20189;-39
2023/05/14 01:57:44;;;;;;;8.27;7.33;;;11.50;99.90;;;;;;5032489;28;20192;-41
2023/05/14 02:00:10;;;;;;;8.03;7.00;;;11.50;99.90;;;;;;5035985;28;20189;-41
2023/05/14 02:02:42;;;;;;;7.93;7.10;;;11.60;99.90;;;;;;5042170;28;20281;-41
2023/05/14 02:05:11;;;;;;;9.53;7.20;;;11.60;99.90;;;;;;5034771;28;20344;-41
2023/05/14 02:07:37;;;;;;;9.63;7.50;;;11.60;99.90;;;;;;5060817;28;20190;-40
2023/05/14 02:10:03;;;;;;;11.53;7.63;;;11.60;99.90;;;;;;5054729;28;20175;-41
2023/05/14 02:12:29;;;;;;;8.03;7.23;;;11.60;99.90;;;;;;5033282;28;20231;-39
2023/05/14 02:14:55;;;;;;;7.27;6.47;;;11.60;99.90;;;;;;5028033;28;20184;-39
2023/05/14 02:17:21;;;;;;;9.87;7.60;;;11.60;99.90;;;;;;5052707;28;20176;-42
2023/05/14 02:19:47;;;;;;;9.63;7.07;;;11.60;99.90;;;;;;5028769;28;20237;-41
2023/05/14 02:22:12;;;;;;;7.57;6.83;;;11.60;99.90;;;;;;5034623;28;20275;-40
2023/05/14 02:24:38;;;;;;;7.90;7.10;;;11.60;99.90;;;;;;5031903;28;20189;-42
2023/05/14 02:27:05;;;;;;;8.97;7.50;;;11.60;99.90;;;;;;5029001;28;20844;-41
2023/05/14 02:29:31;;;;;;;7.97;7.17;;;11.50;99.90;;;;;;5051456;28;20191;-41
2023/05/14 02:31:56;;;;;;;8.13;7.33;;;11.60;99.90;;;;;;5050810;28;20202;-42
2023/05/14 02:34:22;;;;;;;9.87;7.70;;;11.50;99.90;;;;;;5050620;28;20203;-41
2023/05/14 02:36:49;;;;;;;8.93;7.20;;;11.50;99.90;;;;;;5060195;28;20590;-41
2023/05/14 02:39:15;;;;;;;8.33;7.53;;;11.50;99.90;;;;;;5049577;28;20198;-41
2023/05/14 02:41:44;;;;;;;9.13;8.03;;;11.50;99.90;;;;;;5039213;28;20211;-41
2023/05/14 02:44:10;;;;;;;8.63;7.40;;;11.50;99.90;;;;;;5009820;28;1147516;-40
2023/05/14 02:46:36;;;;;;;7.87;7.10;;;11.50;99.90;;;;;;5035014;28;20185;-39
2023/05/14 02:49:02;;;;;;;7.73;6.47;;;11.50;99.90;;;;;;5044549;28;20292;-41
2023/05/14 02:51:27;;;;;;;7.10;6.40;;;11.40;99.90;;;;;;5039656;28;20199;-41
2023/05/14 02:53:53;;;;;;;7.67;6.87;;;11.40;99.90;;;;;;5039468;28;20270;-37
2023/05/14 02:56:20;;;;;;;7.57;6.87;;;11.40;99.90;;;;;;5031954;28;20189;-40
2023/05/14 02:58:45;;;;;;;7.57;6.83;;;11.40;99.90;;;;;;5034587;28;20182;-40
2023/05/14 03:01:11;;;;;;;8.20;7.37;;;11.40;99.90;;;;;;5036474;28;20299;-39
2023/05/14 03:03:37;;;;;;;7.90;7.10;;;11.40;99.90;;;;;;5032124;28;20349;-40
2023/05/14 03:06:04;;;;;;;6.90;6.20;;;11.40;99.90;;;;;;5033009;28;20184;-41
2023/05/14 03:08:30;;;;;;;7.17;6.47;;;11.40;99.90;;;;;;5044878;28;20206;-39
2023/05/14 03:10:55;;;;;;;7.90;7.10;;;11.40;99.90;;;;;;5032626;28;20185;-41
2023/05/14 03:13:21;;;;;;;7.40;6.67;;;11.40;99.90;;;;;;5039135;28;20212;-42
2023/05/14 03:15:47;;;;;;;7.70;7.00;;;11.40;99.90;;;;;;5059315;28;20185;-40
2023/05/14 03:18:13;;;;;;;8.03;7.23;;;11.40;99.90;;;;;;5056771;28;20234;-39
2023/05/14 03:20:40;;;;;;;7.17;6.47;;;11.40;99.90;;;;;;5036652;28;20199;-41
2023/05/14 03:23:06;;;;;;;9.17;8.27;;;11.40;99.90;;;;;;5041708;28;20205;-39
2023/05/14 03:25:33;;;;;;;8.27;7.37;;;11.40;99.90;;;;;;5036572;28;20183;-41
2023/05/14 03:27:59;;;;;;;8.60;6.73;;;11.40;99.90;;;;;;5072814;28;20257;-39
2023/05/14 03:30:25;;;;;;;11.60;7.17;;;11.50;99.90;;;;;;5053725;28;20196;-41
2023/05/14 03:32:51;;;;;;;8.03;7.30;;;11.50;99.90;;;;;;5042407;28;20210;-40
2023/05/14 03:35:17;;;;;;;8.77;7.50;;;11.50;99.90;;;;;;5039339;28;20183;-41
2023/05/14 03:37:42;;;;;;;8.63;7.83;;;11.50;99.90;;;;;;5029727;28;20256;-41
2023/05/14 03:40:09;;;;;;;9.37;7.60;;;11.50;99.90;;;;;;5038279;28;20696;-41
2023/05/14 03:42:35;;;;;;;8.93;8.10;;;11.60;99.90;;;;;;5049301;28;20191;-41
2023/05/14 03:45:02;;;;;;;11.87;7.40;;;11.60;99.90;;;;;;5032841;28;20190;-40
2023/05/14 03:47:28;;;;;;;9.43;8.00;;;11.50;99.90;;;;;;5048047;28;20186;-41
2023/05/14 03:49:55;;;;;;;8.80;7.90;;;11.50;99.90;;;;;;5050661;28;20204;-39
2023/05/14 03:52:21;;;;;;;8.77;7.87;;;11.50;99.90;;;;;;5034466;28;20185;-40
2023/05/14 03:54:47;;;;;;;8.17;6.93;;;11.50;99.90;;;;;;5044541;28;20187;-39
2023/05/14 03:57:14;;;;;;;8.33;7.53;;;11.50;99.90;;;;;;5054686;28;20184;-41
2023/05/14 03:59:40;;;;;;;8.83;6.83;;;11.50;99.90;;;;;;5037910;28;20200;-41
2023/05/14 04:02:06;;;;;;;8.23;7.30;;;11.40;99.90;;;;;;5052715;28;20210;-39
2023/05/14 04:04:32;;;;;;;8.90;7.70;;;11.50;99.90;;;;;;5051034;28;20208;-42
2023/05/14 04:06:58;;;;;;;8.07;7.27;;;11.50;99.90;;;;;;5052482;28;20172;-42
2023/05/14 04:09:24;;;;;;;8.30;7.47;;;11.50;99.90;;;;;;5051096;28;20207;-41
2023/05/14 04:11:50;;;;;;;8.20;7.40;;;11.50;99.90;;;;;;5037564;28;20175;-42
2023/05/14 04:14:16;;;;;;;9.20;6.87;;;11.50;99.90;;;;;;5050260;28;20217;-40
2023/05/14 04:16:43;;;;;;;8.90;7.43;;;11.50;99.90;;;;;;5038372;28;20188;-41
2023/05/14 04:19:10;;;;;;;7.47;6.77;;;11.50;99.90;;;;;;5070301;28;20202;-41
2023/05/14 04:21:36;;;;;;;7.57;6.77;;;11.50;99.90;;;;;;5062592;28;20204;-41
2023/05/14 04:24:02;;;;;;;7.23;6.53;;;11.50;99.90;;;;;;5036495;28;20239;-41
2023/05/14 04:26:27;;;;;;;9.13;7.40;;;11.50;99.90;;;;;;5067821;28;20175;-42
2023/05/14 04:28:53;;;;;;;7.93;7.23;;;11.50;99.90;;;;;;5072424;28;20177;-42
2023/05/14 04:31:19;;;;;;;8.13;7.40;;;11.50;99.90;;;;;;5047182;28;20192;-42
2023/05/14 04:33:45;;;;;;;7.90;7.10;;;11.50;99.90;;;;;;5052387;28;20208;-41
2023/05/14 04:36:11;;;;;;;8.20;6.70;;;11.50;99.90;;;;;;5050218;28;20191;-41
2023/05/14 04:38:37;;;;;;;7.77;6.97;;;11.40;99.90;;;;;;5043802;28;20246;-41
2023/05/14 04:41:03;;;;;;;8.50;7.00;;;11.40;99.90;;;;;;5050736;28;20262;-41
2023/05/14 04:43:29;;;;;;;8.63;7.60;;;11.40;99.90;;;;;;5034289;28;20215;-39
2023/05/14 04:45:54;;;;;;;9.23;7.43;;;11.40;99.90;;;;;;5051366;28;20180;-41
2023/05/14 04:48:21;;;;;;;8.47;7.50;;;11.40;99.90;;;;;;5033739;28;20176;-42
2023/05/14 04:50:47;;;;;;;8.23;7.30;;;11.40;99.90;;;;;;5053043;28;20191;-41
2023/05/14 04:53:12;;;;;;;8.77;7.70;;;11.50;99.90;;;;;;5057834;28;20305;-42
2023/05/14 04:55:38;;;;;;;9.00;8.10;;;11.50;99.90;;;;;;5036728;28;20188;-41
2023/05/14 04:58:04;;;;;;;9.77;7.73;;;11.50;99.90;;;;;;5034312;28;20193;-42
2023/05/14 05:00:30;;;;;;;8.13;7.37;;;11.50;99.90;;;;;;5038528;28;20210;-41
2023/05/14 05:02:55;;;;;;;9.17;8.27;;;11.50;99.90;;;;;;5056341;28;20288;-41
2023/05/14 05:05:21;;;;;;;9.10;8.10;;;11.50;99.90;;;;;;5061729;28;20238;-42
2023/05/14 05:07:47;;;;;;;7.63;6.83;;;11.50;99.90;;;;;;5052394;28;20187;-42
2023/05/14 05:10:13;;;;;;;7.93;7.03;;;11.50;99.90;;;;;;5056971;28;20179;-41
2023/05/14 05:12:39;;;;;;;9.20;7.60;;;11.50;99.90;;;;;;5060339;28;20195;-41
2023/05/14 05:15:05;;;;;;;8.10;7.30;;;11.60;99.90;;;;;;5035587;28;20226;-42
2023/05/14 05:17:31;;;;;;;7.90;7.20;;;11.60;99.90;;;;;;5040007;28;20188;-41
2023/05/14 05:19:57;;;;;;;8.87;8.07;;;11.60;99.90;;;;;;5039765;28;20179;-40
2023/05/14 05:22:23;;;;;;;8.37;7.57;;;11.60;99.90;;;;;;5057678;28;20217;-41
2023/05/14 05:24:49;;;;;;;7.67;6.87;;;11.70;99.90;;;;;;5041719;28;20200;-41
2023/05/14 05:27:15;;;;;;;9.80;8.50;;;11.70;99.90;;;;;;5053098;28;20275;-41
2023/05/14 05:29:43;;;;;;;9.33;8.33;;;11.70;99.90;;;;;;5061260;28;20261;-41
2023/05/14 05:32:09;;;;;;;11.40;10.20;;;11.70;99.90;;;;;;5042124;28;20333;-41
2023/05/14 05:34:35;;;;;;;12.03;10.67;;;11.70;99.90;;;;;;5043543;28;20216;-42
2023/05/14 05:37:01;;;;;;;12.03;9.80;;;11.70;99.90;;;;;;5023285;28;20214;-41
2023/05/14 05:39:33;;;;;;;9.70;8.80;;;11.80;99.90;;;;;;5056589;28;20189;-41
2023/05/14 05:42:03;;;;;;;9.23;8.30;;;11.80;99.90;;;;;;5042471;28;20223;-40
2023/05/14 05:44:30;;;;;;;10.17;9.17;;;11.90;99.90;;;;;;5060030;28;20305;-41
2023/05/14 05:46:56;;;;;;;10.50;8.20;;;11.90;99.90;;;;;;5057034;28;20650;-41
2023/05/14 05:49:22;;;;;;;8.17;7.37;;;11.90;99.90;;;;;;5056705;28;20193;-41
2023/05/14 05:51:48;;;;;;;9.10;8.20;;;12.00;99.90;;;;;;5027110;28;20235;-41
2023/05/14 05:54:14;;;;;;;10.40;9.00;;;12.10;99.90;;;;;;5041009;28;20203;-41
2023/05/14 05:56:40;;;;;;;9.17;8.27;;;12.10;99.90;;;;;;5056822;28;20196;-41
2023/05/14 05:59:06;;;;;;;10.20;8.80;;;12.10;99.90;;;;;;5060363;28;20188;-42
2023/05/14 06:01:31;;;;;;;9.93;8.93;;;12.20;99.90;;;;;;5038469;28;20199;-41
2023/05/14 06:03:57;;;;;;;9.80;8.90;;;12.20;99.90;;;;;;5032496;28;20223;-42
2023/05/14 06:06:23;;;;;;;9.13;8.23;;;12.20;99.90;;;;;;5031527;28;20180;-35
2023/05/14 06:08:49;;;;;;;9.00;8.10;;;12.20;99.90;;;;;;5040404;28;20225;-41
2023/05/14 06:11:15;;;;;;;9.20;7.77;;;12.30;99.90;;;;;;5059206;28;20222;-41
2023/05/14 06:13:41;;;;;;;8.73;7.83;;;12.30;99.90;;;;;;5039132;28;20227;-42
2023/05/14 06:16:07;;;;;;;9.13;8.23;;;12.40;99.90;;;;;;5030915;28;20187;-42
2023/05/14 06:18:33;;;;;;;9.67;8.77;;;12.40;99.90;;;;;;5037115;28;20223;-39
2023/05/14 06:20:59;;;;;;;10.70;8.97;;;12.50;99.90;;;;;;5028672;28;20212;-41
2023/05/14 06:23:25;;;;;;;10.03;8.67;;;12.50;99.90;;;;;;5032436;28;20273;-41
2023/05/14 06:25:51;;;;;;;9.77;8.37;;;12.50;99.90;;;;;;5027757;28;20194;-40
2023/05/14 06:28:17;;;;;;;11.17;8.47;;;12.50;99.90;;;;;;5043880;28;20185;-42
2023/05/14 06:30:43;;;;;;;11.63;10.43;;;12.60;99.90;;;;;;5043016;28;20185;-42
2023/05/14 06:33:08;;;;;;;10.43;9.43;;;12.60;99.90;;;;;;5041720;28;20247;-42
2023/05/14 06:35:34;;;;;;;10.33;9.23;;;12.60;99.90;;;;;;5038745;28;20197;-42
2023/05/14 06:38:00;;;;;;;8.90;8.03;;;12.60;99.90;;;;;;5037431;28;20195;-41
2023/05/14 06:40:26;;;;;;;10.07;9.07;;;12.70;99.90;;;;;;5063611;28;20204;-43
2023/05/14 06:42:52;;;;;;;10.03;8.93;;;12.70;99.90;;;;;;5043154;28;20209;-42
2023/05/14 06:45:18;;;;;;;10.87;9.77;;;12.70;99.90;;;;;;5040686;28;20209;-43
2023/05/14 06:47:44;;;;;;;9.40;8.50;;;12.60;99.90;;;;;;5044639;28;20208;-42
2023/05/14 06:50:10;;;;;;;11.77;10.00;;;12.50;99.90;;;;;;5037477;28;20187;-42
2023/05/14 06:52:36;;;;;;;10.73;9.63;;;12.50;99.90;;;;;;5034886;28;20231;-42
2023/05/14 06:55:02;;;;;;;9.90;8.93;;;12.50;99.90;;;;;;5043091;28;20180;-41
2023/05/14 06:57:28;;;;;;;9.83;8.80;;;12.50;99.90;;;;;;5051709;28;20200;-42
2023/05/14 06:59:54;;;;;;;12.50;9.77;;;12.50;99.90;;;;;;5041938;28;20186;-43
2023/05/14 07:02:21;;;;;;;10.23;9.23;;;12.60;99.90;;;;;;5034346;28;20215;-43
2023/05/14 07:04:47;;;;;;;10.60;9.57;;;12.60;99.90;;;;;;5060565;28;20247;-41
2023/05/14 07:07:16;;;;;;;11.23;9.67;;;12.60;99.90;;;;;;5060737;28;20182;-42
2023/05/14 07:09:42;;;;;;;8.80;7.83;;;12.60;99.90;;;;;;5041591;28;20185;-43
2023/05/14 07:12:08;;;;;;;8.70;7.90;;;12.70;99.90;;;;;;5044522;28;20215;-43
2023/05/14 07:14:34;;;;;;;10.40;9.30;;;12.70;99.90;;;;;;5042805;28;20211;-43
2023/05/14 07:17:00;;;;;;;10.27;9.27;;;12.70;99.90;;;;;;5042835;28;20188;-42
2023/05/14 07:19:27;;;;;;;9.40;8.43;;;12.70;99.90;;;;;;5062177;28;20186;-42
2023/05/14 07:21:53;;;;;;;11.00;9.90;;;12.70;99.90;;;;;;5040511;28;20196;-45
2023/05/14 07:24:19;;;;;;;9.10;8.20;;;12.70;99.90;;;;;;5037761;28;20265;-42
2023/05/14 07:26:45;;;;;;;10.63;9.50;;;12.70;99.90;;;;;;5040165;28;20185;-36
2023/05/14 07:29:16;;;;;;;9.83;8.83;;;12.80;99.90;;;;;;5026619;28;20182;-43
2023/05/14 07:31:43;;;;;;;9.90;8.77;;;12.80;99.90;;;;;;5065829;28;20220;-42
2023/05/14 07:34:09;;;;;;;9.07;8.17;;;12.80;99.90;;;;;;5038519;28;20246;-42
2023/05/14 07:36:36;;;;;;;11.00;9.90;;;12.90;99.90;;;;;;5031768;28;20227;-43
2023/05/14 07:39:02;;;;;;;9.40;8.50;;;12.90;99.90;;;;;;5024455;28;20189;-43
2023/05/14 07:41:28;;;;;;;11.43;9.00;;;13.00;99.90;;;;;;5036215;28;20213;-39
2023/05/14 07:43:53;;;;;;;8.80;7.93;;;13.00;99.90;;;;;;5057963;28;20219;-41
2023/05/14 07:46:19;;;;;;;10.20;9.20;;;13.00;99.90;;;;;;5064973;28;20260;-41
2023/05/14 07:48:45;;;;;;;9.47;8.57;;;13.10;99.90;;;;;;5057628;28;20185;-43
2023/05/14 07:51:11;;;;;;;10.67;9.10;;;13.10;99.90;;;;;;5038223;28;20189;-43
2023/05/14 07:53:36;;;;;;;9.17;8.20;;;13.20;99.90;;;;;;5034603;28;20212;-43
2023/05/14 07:56:02;;;;;;;9.47;8.47;;;13.20;99.90;;;;;;5059463;28;20205;-42
2023/05/14 07:58:29;;;;;;;8.80;7.97;;;13.20;99.90;;;;;;5038128;28;20190;-43
2023/05/14 08:00:55;;;;;;;11.13;9.93;;;13.30;99.90;;;;;;5024611;28;20205;-43
2023/05/14 08:03:21;;;;;;;11.10;10.00;;;13.30;99.90;;;;;;5062281;28;20232;-43
2023/05/14 08:05:47;;;;;;;9.30;8.40;;;13.30;99.90;;;;;;5047748;28;20266;-42
2023/05/14 08:08:13;;;;;;;10.37;9.00;;;13.40;99.90;;;;;;5039557;28;20182;-43
2023/05/14 08:10:38;;;;;;;10.13;9.03;;;13.50;99.90;;;;;;5042499;28;20181;-43
2023/05/14 08:13:04;;;;;;;9.87;8.83;;;13.50;99.90;;;;;;5034870;28;20279;-42
2023/05/14 08:15:30;;;;;;;10.33;9.20;;;13.60;99.90;;;;;;5027806;28;20189;-41
2023/05/14 08:18:01;;;;;;;9.87;8.73;;;13.70;99.90;;;;;;5043563;28;20198;-42
2023/05/14 08:20:31;;;;;;;10.20;8.50;;;13.80;99.90;;;;;;5049254;28;20196;-43
2023/05/14 08:22:57;;;;;;;9.50;8.50;;;13.90;99.90;;;;;;5035578;28;20205;-42
2023/05/14 08:25:23;;;;;;;11.00;9.90;;;13.90;99.90;;;;;;5061043;28;20189;-42
2023/05/14 08:27:50;;;;;;;10.17;9.17;;;13.70;99.90;;;;;;5055827;28;20189;-42
2023/05/14 08:30:16;;;;;;;9.03;8.13;;;13.80;99.90;;;;;;5037907;28;20185;-42
2023/05/14 08:32:42;;;;;;;10.40;9.40;;;13.80;99.90;;;;;;5043412;28;20265;-42
2023/05/14 08:35:08;;;;;;;10.30;9.10;;;13.80;99.90;;;;;;5044757;28;20279;-42
2023/05/14 08:37:35;;;;;;;9.47;8.57;;;13.80;99.90;;;;;;5040415;28;20189;-43
2023/05/14 08:40:01;;;;;;;8.87;8.07;;;13.80;99.90;;;;;;5032824;28;20280;-42
2023/05/14 08:42:28;;;;;;;11.00;9.90;;;13.80;99.90;;;;;;5043052;28;20347;-41
2023/05/14 08:45:00;;;;;;;9.90;8.90;;;13.90;99.90;;;;;;5065009;28;20202;-43
2023/05/14 08:47:31;;;;;;;11.17;9.93;;;13.90;99.90;;;;;;5045790;28;20187;-41
2023/05/14 08:50:07;;;;;;;10.57;9.47;;;13.90;99.90;;;;;;5056521;28;20189;-41
2023/05/14 08:52:35;;;;;;;12.47;10.23;;;13.90;99.90;;;;;;5051209;28;20190;-41
2023/05/14 08:55:05;;;;;;;11.40;9.80;;;13.90;99.90;;;;;;5037256;28;20235;-42
2023/05/14 08:57:33;;;;;;;11.37;9.47;;;13.90;99.90;;;;;;5063177;28;20195;-43
2023/05/14 09:00:05;;;;;;;11.47;10.27;;;14.00;99.90;;;;;;5041877;28;20195;-42
2023/05/14 09:02:33;;;;;;;12.30;10.97;;;14.00;99.90;;;;;;5051015;28;20291;-42
2023/05/14 09:05:02;;;;;;;11.83;10.20;;;14.10;99.90;;;;;;5063340;28;20651;-42
2023/05/14 09:07:28;;;;;;;12.23;10.80;;;14.10;99.90;;;;;;5035920;28;20186;-42
2023/05/14 09:09:55;;;;;;;9.77;8.77;;;14.20;99.90;;;;;;5035881;28;20184;-42
2023/05/14 09:12:22;;;;;;;12.07;10.57;;;14.30;99.90;;;;;;5048596;28;20216;-43
2023/05/14 09:14:49;;;;;;;10.83;9.70;;;14.40;99.90;;;;;;5067243;28;20221;-42
2023/05/14 09:17:16;;;;;;;11.20;10.10;;;14.40;99.90;;;;;;5040698;28;20192;-42
2023/05/14 09:19:51;;;;;;;11.53;10.40;;;14.50;99.90;;;;;;5036409;28;20181;-42
2023/05/14 09:22:18;;;;;;;12.23;11.00;;;14.50;99.90;;;;;;5041523;28;20224;-41
2023/05/14 09:24:45;;;;;;;12.83;11.63;;;14.50;99.90;;;;;;5057232;28;20260;-43
2023/05/14 09:27:19;;;;;;;11.57;10.27;;;14.60;99.90;;;;;;5041706;28;20230;-42
2023/05/14 09:29:46;;;;;;;13.10;10.50;;;14.50;99.90;;;;;;5024741;28;20181;-43
2023/05/14 09:32:12;;;;;;;11.03;9.93;;;14.50;99.90;;;;;;5057135;28;20194;-42
2023/05/14 09:34:38;;;;;;;11.20;10.00;;;14.60;99.90;;;;;;5054325;28;20202;-43
2023/05/14 09:37:06;;;;;;;10.37;9.27;;;14.60;99.90;;;;;;5045460;28;20182;-43
2023/05/14 09:39:35;;;;;;;11.40;10.30;;;14.70;99.90;;;;;;5040907;28;20255;-43
2023/05/14 09:42:01;;;;;;;11.60;9.57;;;14.80;99.90;;;;;;5052720;28;20193;-43
2023/05/14 09:44:27;;;;;;;11.23;10.13;;;14.90;99.90;;;;;;5052130;28;20226;-43
2023/05/14 09:46:53;;;;;;;10.47;9.47;;;15.00;99.90;;;;;;5071065;28;20177;-43
2023/05/14 09:49:21;;;;;;;9.70;8.70;;;15.10;99.90;;;;;;5066730;28;20185;-43
2023/05/14 09:51:50;;;;;;;11.10;10.00;;;15.30;99.90;;;;;;5054722;28;20271;-43
2023/05/14 09:54:17;;;;;;;13.00;11.67;;;15.40;99.90;;;;;;5032060;28;20226;-43
2023/05/14 09:56:43;;;;;;;12.10;10.83;;;15.60;99.90;;;;;;5031717;28;20181;-43
2023/05/14 09:59:09;;;;;;;11.70;10.50;;;15.60;99.90;;;;;;5037871;28;20277;-42
2023/05/14 10:01:36;;;;;;;11.20;9.57;;;15.60;99.90;;;;;;5057310;28;20219;-42
2023/05/14 10:04:05;;;;;;;10.50;9.10;;;15.70;99.90;;;;;;5032239;28;20300;-43
2023/05/14 10:06:35;;;;;;;12.20;10.80;;;15.90;99.90;;;;;;5055327;28;20189;-42
2023/05/14 10:09:04;;;;;;;10.47;9.27;;;16.10;99.90;;;;;;5058891;28;20170;-43
2023/05/14 10:11:36;;;;;;;12.30;11.00;;;16.20;99.90;;;;;;5040596;28;20182;-42
2023/05/14 10:14:28;;;;;;;10.37;9.37;;;16.40;99.90;;;;;;5049798;28;20296;-41
2023/05/14 10:16:57;;;;;;;10.52;9.43;;;16.60;99.90;;;;;;5024823;28;20193;-43
2023/05/14 10:19:24;;;;;;;10.27;9.27;;;16.80;99.90;;;;;;5020612;28;20186;-40
2023/05/14 10:21:56;;;;;;;9.70;8.80;;;16.80;99.90;;;;;;5057798;28;20221;-42
2023/05/14 10:24:26;;;;;;;10.32;9.32;;;16.70;99.90;;;;;;5056205;28;20204;-42
2023/05/14 10:26:55;;;;;;;9.68;8.73;;;16.90;99.90;;;;;;5035645;28;20186;-40
2023/05/14 10:29:36;;;;;;;9.40;8.45;;;17.20;99.90;;;;;;5038381;28;20169;-43
2023/05/14 10:32:13;;;;;;;9.35;8.40;;;17.50;99.90;;;;;;5043371;28;20193;-42
2023/05/14 10:34:42;;;;;;;9.60;8.65;;;17.50;99.90;;;;;;5058294;28;20741;-42
2023/05/14 10:37:11;;;;;;;9.52;8.55;;;17.80;99.90;;;;;;5056617;28;20219;-42
2023/05/14 10:39:49;;;;;;;9.27;8.38;;;17.80;99.90;;;;;;5059179;28;20182;-42
2023/05/14 10:42:16;;;;;;;9.00;8.10;;;18.00;99.90;;;;;;5053379;28;20263;-42
2023/05/14 10:45:07;;;;;;;9.35;8.45;;;18.00;99.90;;;;;;5036717;28;20209;-43
2023/05/14 10:47:35;;;;;;;7.70;6.60;;;18.10;99.90;;;;;;5038145;28;20199;-42
2023/05/14 10:50:03;;;;;;;7.22;6.13;;;18.30;99.90;;;;;;5037906;28;20191;-42
2023/05/14 10:52:30;;;;;;;6.82;6.15;;;18.60;99.90;;;;;;5052757;28;20216;-42
2023/05/14 10:54:59;;;;;;;6.00;5.50;;;18.40;99.90;;;;;;5030915;28;20196;-42
2023/05/14 10:57:27;;;;;;;5.32;4.82;;;18.60;99.90;;;;;;5041544;28;20196;-42
2023/05/14 10:59:55;;;;;;;6.80;6.20;;;18.70;99.90;;;;;;5027873;28;20288;-42
2023/05/14 11:02:24;;;;;;;6.32;5.75;;;18.90;99.90;;;;;;5070204;28;20236;-43
2023/05/14 11:04:57;;;;;;;6.97;5.53;;;18.90;99.90;;;;;;5051684;28;20231;-42
2023/05/14 11:07:26;;;;;;;6.03;5.45;;;18.90;99.90;;;;;;5061847;28;20182;-41
2023/05/14 11:09:55;;;;;;;6.53;5.93;;;18.70;99.90;;;;;;5035442;28;20185;-42
2023/05/14 11:12:20;;;;;;;6.00;5.50;;;18.40;99.90;;;;;;5051363;28;20216;-42
2023/05/14 11:14:46;;;;;;;5.80;5.25;;;18.20;99.90;;;;;;5051931;28;20225;-42
2023/05/14 11:17:13;;;;;;;7.03;6.32;;;18.20;99.90;;;;;;5051793;28;20217;-42
2023/05/14 11:19:42;;;;;;;5.88;5.30;;;18.20;99.90;;;;;;5043943;28;20186;-43
2023/05/14 11:22:08;;;;;;;7.22;6.60;;;18.00;99.90;;;;;;5038082;28;20202;-43
2023/05/14 11:24:34;;;;;;;7.10;6.40;;;18.10;99.90;;;;;;5032564;28;20743;-42
2023/05/14 11:27:00;;;;;;;6.90;6.20;;;18.10;99.90;;;;;;5043814;28;20178;-43
2023/05/14 11:29:25;;;;;;;7.00;6.30;;;18.10;99.90;;;;;;5035443;28;20779;-42
2023/05/14 11:31:51;;;;;;;6.38;5.85;;;18.00;99.90;;;;;;5061557;28;20208;-40
2023/05/14 11:34:17;;;;;;;5.97;5.47;;;18.00;99.90;;;;;;5035410;28;20252;-43
2023/05/14 11:36:43;;;;;;;5.22;4.72;;;18.10;99.90;;;;;;5051476;28;20212;-42
2023/05/14 11:39:16;;;;;;;5.25;4.75;;;18.50;99.90;;;;;;5047693;28;20185;-43
2023/05/14 11:41:45;;;;;;;4.82;4.43;;;18.80;99.90;;;;;;5036500;28;20244;-42
2023/05/14 11:44:10;;;;;;;5.90;4.18;;;18.80;99.90;;;;;;5018556;28;20306;-43
2023/05/14 11:46:36;;;;;;;4.38;3.97;;;18.60;99.90;;;;;;5053289;28;20210;-42
2023/05/14 11:49:05;;;;;;;5.65;4.93;;;18.50;99.90;;;;;;5053445;28;20201;-43
2023/05/14 11:51:32;;;;;;;4.95;4.45;;;18.20;99.90;;;;;;5052348;28;20189;-43
2023/05/14 11:53:58;;;;;;;4.85;4.35;;;17.90;99.90;;;;;;5035091;28;20746;-43
2023/05/14 11:56:23;;;;;;;5.70;5.20;;;17.70;99.90;;;;;;5053578;28;20181;-43
2023/05/14 11:58:56;;;;;;;6.75;4.90;;;17.70;99.90;;;;;;5053102;28;20210;-43
2023/05/14 12:01:22;;;;;;;5.20;4.80;;;17.30;99.90;;;;;;5035027;28;20209;-43
2023/05/14 12:03:49;;;;;;;5.53;5.03;;;17.30;99.90;;;;;;5034658;28;20220;-42
2023/05/14 12:06:15;;;;;;;5.28;4.78;;;17.40;99.90;;;;;;5065322;28;20184;-43
2023/05/14 12:08:40;;;;;;;4.68;4.28;;;17.30;99.90;;;;;;5036599;28;20178;-43
2023/05/14 12:11:08;;;;;;;5.22;4.72;;;17.50;99.90;;;;;;5052797;28;20239;-43
2023/05/14 12:13:35;;;;;;;5.32;4.82;;;17.60;99.90;;;;;;5052350;28;20197;-43
2023/05/14 12:16:02;;;;;;;4.63;4.22;;;17.70;99.90;;;;;;5034243;28;20185;-42
2023/05/14 12:18:30;;;;;;;5.18;4.78;;;17.90;99.90;;;;;;5034731;28;20210;-42
2023/05/14 12:21:01;;;;;;;5.32;4.82;;;17.90;99.90;;;;;;5046720;28;20212;-42
2023/05/14 12:23:31;;;;;;;5.95;5.45;;;18.00;99.90;;;;;;5046165;28;20202;-43
2023/05/14 12:26:02;;;;;;;5.57;5.07;;;18.10;99.90;;;;;;5051985;28;20193;-42
2023/05/14 12:28:28;;;;;;;5.53;5.00;;;18.00;99.90;;;;;;5052494;28;20293;-43
2023/05/14 12:30:58;;;;;;;5.45;5.00;;;18.10;99.90;;;;;;5042632;28;20314;-42
2023/05/14 12:33:27;;;;;;;5.38;4.90;;;18.10;99.90;;;;;;5051523;28;20906;-42
2023/05/14 12:35:56;;;;;;;5.57;5.07;;;17.90;99.90;;;;;;5032505;28;20209;-43
2023/05/14 12:38:22;;;;;;;5.40;4.90;;;17.90;99.90;;;;;;5067857;28;20212;-43
2023/05/14 12:40:48;;;;;;;5.65;5.20;;;17.80;99.90;;;;;;5052384;28;20201;-43
2023/05/14 12:43:13;;;;;;;6.00;5.40;;;17.80;99.90;;;;;;5028662;28;20267;-42